createdAt,value
2023-03-06T00:00:57.678Z,5.21
2023-03-06T00:03:27.656Z,5.14
2023-03-06T00:05:58.720Z,5.10
2023-03-06T00:08:27.564Z,5.08
2023-03-06T00:10:54.300Z,5.02
2023-03-06T00:13:21.020Z,4.99
2023-03-06T00:15:48.995Z,4.98
2023-03-06T00:18:15.566Z,4.88
2023-03-06T00:20:43.573Z,4.97
2023-03-06T00:23:11.402Z,4.95
2023-03-06T00:25:38.793Z,4.98
2023-03-06T00:28:05.918Z,4.98
2023-03-06T00:30:32.725Z,4.99
2023-03-06T00:32:59.295Z,4.98
2023-03-06T00:35:25.763Z,4.99
2023-03-06T00:37:52.241Z,4.92
2023-03-06T00:40:21.347Z,4.96
2023-03-06T00:42:48.487Z,4.97
2023-03-06T00:45:15.154Z,4.95
2023-03-06T00:47:42.013Z,4.90
2023-03-06T00:50:09.978Z,4.95
2023-03-06T00:52:36.528Z,4.91
2023-03-06T00:55:03.657Z,4.90
2023-03-06T00:57:30.151Z,4.98
2023-03-06T00:59:56.560Z,4.95
2023-03-06T01:02:23.090Z,4.90
2023-03-06T01:04:49.656Z,5.05
2023-03-06T01:07:16.193Z,5.05
2023-03-06T01:09:42.690Z,5.01
2023-03-06T01:12:09.332Z,4.95
2023-03-06T01:14:35.862Z,4.96
2023-03-06T01:17:02.368Z,5.00
2023-03-06T01:19:28.837Z,4.95
2023-03-06T01:21:55.411Z,4.99
2023-03-06T01:24:23.892Z,5.00
2023-03-06T01:26:50.345Z,5.07
2023-03-06T01:29:16.840Z,5.09
2023-03-06T01:31:43.365Z,5.12
2023-03-06T01:34:09.906Z,5.04
2023-03-06T01:36:36.322Z,5.10
2023-03-06T01:39:03.718Z,5.07
2023-03-06T01:41:30.553Z,5.12
2023-03-06T01:43:57.066Z,5.10
2023-03-06T01:46:32.621Z,5.02
2023-03-06T01:49:00.680Z,4.98
2023-03-06T01:51:33.667Z,5.01
2023-03-06T01:54:04.352Z,5.00
2023-03-06T01:56:30.931Z,5.04
2023-03-06T01:58:58.522Z,5.05
2023-03-06T02:01:25.606Z,5.05
2023-03-06T02:03:52.246Z,4.98
2023-03-06T02:06:21.578Z,4.90
2023-03-06T02:08:49.618Z,5.01
2023-03-06T02:11:22.477Z,5.04
2023-03-06T02:13:51.743Z,5.02
2023-03-06T02:16:23.470Z,4.98
2023-03-06T02:18:51.063Z,4.96
2023-03-06T02:21:25.424Z,4.90
2023-03-06T02:24:21.014Z,4.96
2023-03-06T02:26:48.231Z,4.93
2023-03-06T02:29:21.187Z,4.91
2023-03-06T02:31:47.754Z,4.96
2023-03-06T02:34:14.180Z,5.00
2023-03-06T02:36:47.476Z,4.92
2023-03-06T02:39:15.708Z,4.92
2023-03-06T02:41:42.126Z,4.95
2023-03-06T02:44:08.615Z,4.89
2023-03-06T02:46:35.150Z,4.77
2023-03-06T02:49:01.871Z,4.82
2023-03-06T02:51:28.370Z,4.89
2023-03-06T02:53:54.833Z,4.85
2023-03-06T02:56:21.828Z,4.84
2023-03-06T02:58:48.386Z,4.84
2023-03-06T03:01:15.361Z,4.79
2023-03-06T03:03:41.833Z,4.88
2023-03-06T03:06:08.370Z,4.86
2023-03-06T03:08:35.337Z,4.77
2023-03-06T03:11:02.906Z,4.80
2023-03-06T03:13:29.529Z,4.74
2023-03-06T03:16:05.407Z,4.77
2023-03-06T03:18:32.354Z,4.74
2023-03-06T03:20:59.104Z,4.80
2023-03-06T03:23:26.199Z,4.79
2023-03-06T03:25:53.201Z,4.81
2023-03-06T03:28:19.821Z,4.75
2023-03-06T03:30:46.595Z,4.81
2023-03-06T03:33:13.182Z,4.74
2023-03-06T03:35:39.715Z,4.78
2023-03-06T03:38:06.140Z,4.79
2023-03-06T03:40:32.653Z,4.74
2023-03-06T03:42:59.158Z,4.70
2023-03-06T03:45:25.682Z,4.73
2023-03-06T03:47:52.155Z,4.71
2023-03-06T03:50:19.418Z,4.70
2023-03-06T03:52:45.842Z,4.71
2023-03-06T03:55:12.348Z,4.73
2023-03-06T03:57:39.213Z,4.78
2023-03-06T04:00:07.719Z,4.41
2023-03-06T04:02:34.131Z,4.86
2023-03-06T04:05:00.682Z,4.82
2023-03-06T04:07:27.132Z,4.83
2023-03-06T04:09:53.782Z,4.84
2023-03-06T04:12:20.213Z,4.89
2023-03-06T04:14:46.630Z,4.81
2023-03-06T04:17:13.125Z,4.84
2023-03-06T04:19:39.592Z,4.84
2023-03-06T04:22:06.044Z,4.80
2023-03-06T04:24:32.498Z,4.87
2023-03-06T04:26:58.930Z,4.84
2023-03-06T04:29:25.414Z,4.80
2023-03-06T04:31:52.079Z,4.75
2023-03-06T04:34:18.535Z,4.75
2023-03-06T04:36:45.204Z,4.76
2023-03-06T04:39:12.837Z,4.81
2023-03-06T04:41:40.578Z,4.81
2023-03-06T04:44:07.833Z,4.86
2023-03-06T04:46:35.137Z,4.81
2023-03-06T04:49:01.635Z,4.88
2023-03-06T04:51:28.209Z,4.93
2023-03-06T04:53:54.730Z,4.88
2023-03-06T04:56:21.130Z,4.87
2023-03-06T04:58:47.652Z,4.87
2023-03-06T05:01:14.102Z,4.83
2023-03-06T05:03:40.852Z,4.84
2023-03-06T05:06:07.391Z,4.81
2023-03-06T05:08:33.890Z,4.80
2023-03-06T05:11:01.967Z,4.84
2023-03-06T05:13:28.910Z,4.89
2023-03-06T05:15:55.410Z,4.86
2023-03-06T05:18:22.032Z,4.79
2023-03-06T05:20:48.470Z,4.79
2023-03-06T05:23:14.863Z,4.82
2023-03-06T05:25:42.055Z,4.74
2023-03-06T05:28:08.886Z,4.62
2023-03-06T05:30:35.653Z,4.70
2023-03-06T05:33:02.104Z,4.67
2023-03-06T05:35:28.744Z,4.71
2023-03-06T05:37:55.162Z,4.67
2023-03-06T05:40:21.656Z,4.68
2023-03-06T05:42:48.184Z,4.69
2023-03-06T05:45:15.060Z,4.66
2023-03-06T05:47:41.629Z,4.69
2023-03-06T05:50:10.325Z,4.64
2023-03-06T05:52:39.415Z,4.63
2023-03-06T05:55:06.710Z,4.60
2023-03-06T05:57:33.207Z,4.87
2023-03-06T05:59:59.665Z,5.00
2023-03-06T06:02:26.207Z,4.96
2023-03-06T06:04:52.728Z,4.96
2023-03-06T06:07:19.262Z,4.98
2023-03-06T06:09:46.211Z,5.02
2023-03-06T06:12:13.187Z,5.05
2023-03-06T06:14:40.002Z,5.05
2023-03-06T06:17:06.486Z,5.08
2023-03-06T06:19:32.978Z,5.13
2023-03-06T06:21:59.589Z,5.13
2023-03-06T06:24:26.451Z,5.12
2023-03-06T06:26:54.774Z,5.13
2023-03-06T06:29:21.781Z,5.12
2023-03-06T06:31:48.712Z,5.10
2023-03-06T06:34:15.353Z,5.22
2023-03-06T06:36:42.112Z,5.21
2023-03-06T06:39:09.584Z,5.28
2023-03-06T06:41:53.594Z,5.23
2023-03-06T06:44:22.552Z,5.28
2023-03-06T06:47:21.234Z,5.27
2023-03-06T06:49:37.061Z,5.28
2023-03-06T06:52:04.759Z,5.36
2023-03-06T06:54:32.927Z,5.42
2023-03-06T06:56:59.616Z,5.48
2023-03-06T06:59:26.168Z,5.43
2023-03-06T07:01:52.676Z,5.37
2023-03-06T07:04:19.252Z,5.45
2023-03-06T07:06:45.958Z,5.53
2023-03-06T07:09:13.589Z,5.50
2023-03-06T07:11:40.941Z,5.44
2023-03-06T07:14:08.094Z,5.44
2023-03-06T07:16:34.855Z,5.30
2023-03-06T07:19:01.383Z,5.55
2023-03-06T07:21:27.956Z,5.62
2023-03-06T07:23:57.222Z,5.49
2023-03-06T07:26:24.281Z,5.56
2023-03-06T07:28:53.555Z,5.49
2023-03-06T07:31:22.090Z,5.44
2023-03-06T07:33:49.519Z,5.43
2023-03-06T07:36:16.256Z,5.38
2023-03-06T07:38:42.848Z,5.36
2023-03-06T07:41:13.350Z,5.41
2023-03-06T07:43:41.141Z,5.30
2023-03-06T07:46:08.739Z,5.37
2023-03-06T07:48:36.514Z,5.33
2023-03-06T07:51:05.784Z,5.32
2023-03-06T07:53:32.576Z,5.15
2023-03-06T07:55:59.432Z,5.37
2023-03-06T07:58:26.535Z,5.40
2023-03-06T08:00:52.971Z,5.45
2023-03-06T08:03:19.451Z,5.45
2023-03-06T08:05:46.038Z,5.49
2023-03-06T08:08:12.594Z,5.49
2023-03-06T08:10:39.146Z,5.55
2023-03-06T08:13:06.418Z,5.63
2023-03-06T08:15:32.914Z,5.69
2023-03-06T08:17:59.630Z,5.80
2023-03-06T08:20:26.158Z,5.68
2023-03-06T08:22:52.644Z,5.72
2023-03-06T08:25:19.133Z,5.75
2023-03-06T08:27:47.292Z,5.79
2023-03-06T08:30:14.134Z,5.86
2023-03-06T08:32:40.634Z,5.86
2023-03-06T08:35:07.675Z,5.98
2023-03-06T08:37:34.314Z,5.93
2023-03-06T08:40:03.570Z,6.09
2023-03-06T08:42:30.572Z,6.26
2023-03-06T08:44:56.975Z,6.43
2023-03-06T08:47:23.479Z,6.30
2023-03-06T08:49:49.933Z,6.32
2023-03-06T08:52:17.011Z,6.29
2023-03-06T08:54:43.546Z,6.31
2023-03-06T08:57:10.129Z,6.33
2023-03-06T08:59:37.012Z,6.32
2023-03-06T09:02:05.271Z,6.27
2023-03-06T09:04:32.012Z,6.23
2023-03-06T09:07:00.604Z,6.34
2023-03-06T09:09:27.099Z,6.26
2023-03-06T09:11:53.636Z,6.35
2023-03-06T09:14:20.083Z,6.21
2023-03-06T09:16:46.577Z,6.25
2023-03-06T09:19:12.989Z,6.34
2023-03-06T09:21:39.422Z,6.29
2023-03-06T09:24:06.368Z,6.41
2023-03-06T09:26:45.130Z,6.49
2023-03-06T09:29:12.744Z,6.54
2023-03-06T09:31:39.287Z,6.52
2023-03-06T09:34:05.781Z,6.47
2023-03-06T09:36:40.138Z,6.52
2023-03-06T09:39:12.521Z,6.52
2023-03-06T09:41:42.341Z,6.41
2023-03-06T09:44:29.225Z,6.43
2023-03-06T09:47:22.643Z,6.53
2023-03-06T09:50:19.407Z,6.60
2023-03-06T09:52:57.882Z,6.56
2023-03-06T09:55:27.177Z,6.63
2023-03-06T09:57:59.040Z,6.65
2023-03-06T10:00:36.864Z,6.70
2023-03-06T10:03:21.537Z,6.68
2023-03-06T10:05:58.831Z,6.53
2023-03-06T10:08:49.084Z,6.59
2023-03-06T10:11:23.626Z,6.57
2023-03-06T10:14:29.516Z,6.49
2023-03-06T10:16:56.995Z,6.49
2023-03-06T10:19:23.622Z,6.58
2023-03-06T10:21:57.463Z,6.78
2023-03-06T10:24:29.995Z,6.86
2023-03-06T10:27:24.198Z,6.88
2023-03-06T10:30:03.059Z,7.00
2023-03-06T10:32:49.293Z,7.04
2023-03-06T10:35:25.541Z,7.15
2023-03-06T10:38:00.097Z,7.13
2023-03-06T10:40:37.443Z,7.13
2023-03-06T10:43:12.071Z,7.08
2023-03-06T10:45:54.937Z,7.24
2023-03-06T10:48:28.040Z,7.14
2023-03-06T10:51:17.762Z,7.12
2023-03-06T10:54:13.656Z,7.27
2023-03-06T10:56:42.866Z,7.22
2023-03-06T10:59:22.883Z,7.04
2023-03-06T11:01:50.589Z,7.04
2023-03-06T11:04:33.553Z,6.93
2023-03-06T11:07:07.453Z,6.83
2023-03-06T11:09:34.416Z,6.83
2023-03-06T11:12:30.642Z,6.74
2023-03-06T11:15:24.558Z,6.74
2023-03-06T11:17:53.669Z,6.78
2023-03-06T11:20:38.321Z,6.76
2023-03-06T11:23:35.157Z,6.68
2023-03-06T11:26:27.198Z,6.83
2023-03-06T11:29:06.521Z,6.83
2023-03-06T11:31:54.617Z,6.85
2023-03-06T11:34:44.224Z,6.84
2023-03-06T11:37:29.622Z,6.80
2023-03-06T11:40:12.026Z,6.71
2023-03-06T11:42:52.742Z,6.70
2023-03-06T11:45:26.652Z,6.62
2023-03-06T11:48:03.070Z,6.59
2023-03-06T11:50:40.989Z,6.54
2023-03-06T11:53:31.920Z,6.60
2023-03-06T11:56:24.689Z,6.54
2023-03-06T11:59:00.373Z,6.54
2023-03-06T12:01:50.388Z,6.68
2023-03-06T12:04:35.383Z,6.62
2023-03-06T12:07:32.426Z,6.70
2023-03-06T12:10:37.866Z,6.80
2023-03-06T12:13:14.491Z,6.78
2023-03-06T12:16:02.649Z,6.78
2023-03-06T12:18:39.514Z,6.87
2023-03-06T12:21:21.307Z,7.03
2023-03-06T12:24:26.190Z,7.14
2023-03-06T12:27:10.812Z,7.10
2023-03-06T12:29:40.148Z,7.16
2023-03-06T12:32:14.837Z,7.23
2023-03-06T12:35:12.594Z,7.17
2023-03-06T12:37:46.660Z,7.22
2023-03-06T12:40:39.582Z,7.13
2023-03-06T12:43:19.519Z,7.12
2023-03-06T12:45:46.803Z,7.21
2023-03-06T12:48:21.669Z,7.32
2023-03-06T12:50:50.030Z,7.36
2023-03-06T12:53:27.517Z,7.52
2023-03-06T12:55:56.008Z,7.57
2023-03-06T12:58:28.697Z,7.63
2023-03-06T13:01:17.176Z,7.72
2023-03-06T13:04:05.488Z,7.84
2023-03-06T13:06:54.544Z,7.68
2023-03-06T13:09:32.852Z,7.71
2023-03-06T13:12:23.571Z,7.80
2023-03-06T13:14:56.064Z,7.98
2023-03-06T13:17:38.686Z,7.76
2023-03-06T13:20:28.192Z,7.65
2023-03-06T13:22:54.772Z,7.55
2023-03-06T13:25:21.217Z,7.69
2023-03-06T13:28:01.178Z,7.66
2023-03-06T13:30:36.477Z,7.74
2023-03-06T13:33:36.254Z,7.85
2023-03-06T13:36:36.224Z,7.73
2023-03-06T13:39:11.192Z,7.47
2023-03-06T13:41:54.042Z,7.42
2023-03-06T13:44:23.529Z,7.44
2023-03-06T13:47:06.485Z,7.47
2023-03-06T13:49:34.953Z,7.42
2023-03-06T13:52:18.014Z,7.46
2023-03-06T13:55:05.976Z,7.44
2023-03-06T13:57:41.464Z,7.32
2023-03-06T14:00:17.033Z,7.36
2023-03-06T14:03:15.382Z,7.32
2023-03-06T14:05:50.757Z,7.28
2023-03-06T14:08:21.492Z,7.20
2023-03-06T14:10:59.374Z,7.20
2023-03-06T14:13:38.417Z,7.28
2023-03-06T14:16:19.842Z,7.38
2023-03-06T14:18:49.293Z,7.38
2023-03-06T14:21:21.325Z,7.33
2023-03-06T14:24:00.426Z,7.27
2023-03-06T14:26:28.778Z,7.29
2023-03-06T14:28:58.517Z,7.29
2023-03-06T14:31:32.017Z,7.35
2023-03-06T14:34:01.497Z,7.25
2023-03-06T14:36:33.886Z,7.29
2023-03-06T14:39:10.562Z,7.26
2023-03-06T14:41:37.411Z,7.18
2023-03-06T14:44:18.049Z,7.16
2023-03-06T14:47:11.158Z,7.26
2023-03-06T14:49:37.617Z,7.26
2023-03-06T14:52:04.426Z,7.25
2023-03-06T14:54:38.723Z,7.17
2023-03-06T14:57:14.323Z,7.16
2023-03-06T14:59:47.304Z,7.28
2023-03-06T15:02:19.816Z,7.28
2023-03-06T15:04:51.075Z,7.10
2023-03-06T15:07:22.373Z,7.15
2023-03-06T15:09:51.196Z,7.08
2023-03-06T15:12:20.768Z,7.10
2023-03-06T15:15:03.614Z,7.06
2023-03-06T15:17:37.830Z,6.97
2023-03-06T15:20:07.893Z,7.06
2023-03-06T15:22:39.641Z,7.15
2023-03-06T15:25:32.322Z,7.16
2023-03-06T15:28:22.631Z,7.31
2023-03-06T15:31:10.488Z,7.29
2023-03-06T15:33:37.718Z,7.36
2023-03-06T15:36:06.249Z,7.35
2023-03-06T15:38:41.909Z,7.28
2023-03-06T15:41:40.985Z,7.15
2023-03-06T15:44:14.214Z,6.85
2023-03-06T15:46:41.380Z,7.02
2023-03-06T15:49:14.462Z,7.05
2023-03-06T15:51:41.035Z,6.88
2023-03-06T15:54:12.229Z,6.93
2023-03-06T15:56:41.693Z,6.88
2023-03-06T15:59:16.800Z,6.88
2023-03-06T16:01:43.706Z,6.93
2023-03-06T16:04:10.240Z,6.90
2023-03-06T16:06:37.593Z,6.96
2023-03-06T16:09:05.782Z,6.84
2023-03-06T16:11:43.294Z,6.83
2023-03-06T16:14:23.617Z,6.74
2023-03-06T16:16:54.193Z,6.73
2023-03-06T16:19:27.336Z,6.71
2023-03-06T16:21:55.734Z,6.68
2023-03-06T16:24:22.503Z,6.66
2023-03-06T16:26:51.089Z,6.70
2023-03-06T16:29:20.275Z,6.72
2023-03-06T16:31:47.020Z,6.73
2023-03-06T16:34:14.065Z,6.80
2023-03-06T16:36:43.409Z,6.80
2023-03-06T16:39:16.987Z,6.79
2023-03-06T16:41:45.744Z,6.85
2023-03-06T16:44:12.781Z,6.79
2023-03-06T16:46:47.801Z,6.81
2023-03-06T16:49:24.496Z,6.84
2023-03-06T16:51:51.512Z,6.77
2023-03-06T16:54:18.661Z,6.80
2023-03-06T16:56:45.212Z,6.80
2023-03-06T16:59:12.229Z,6.74
2023-03-06T17:01:42.598Z,6.78
2023-03-06T17:04:09.521Z,6.84
2023-03-06T17:06:36.198Z,6.76
2023-03-06T17:09:02.695Z,6.76
2023-03-06T17:11:29.677Z,6.75
2023-03-06T17:13:56.232Z,6.79
2023-03-06T17:16:22.897Z,6.79
2023-03-06T17:18:49.697Z,6.79
2023-03-06T17:21:16.206Z,6.79
2023-03-06T17:23:44.243Z,6.77
2023-03-06T17:26:18.078Z,6.71
2023-03-06T17:28:45.482Z,6.70
2023-03-06T17:31:22.126Z,6.72
2023-03-06T17:33:49.455Z,6.68
2023-03-06T17:36:16.566Z,6.70
2023-03-06T17:38:43.350Z,6.62
2023-03-06T17:41:11.364Z,6.54
2023-03-06T17:43:38.942Z,6.53
2023-03-06T17:46:07.417Z,6.43
2023-03-06T17:48:34.260Z,6.36
2023-03-06T17:51:00.764Z,6.34
2023-03-06T17:53:27.632Z,6.34
2023-03-06T17:55:55.638Z,6.30
2023-03-06T17:58:22.138Z,6.31
2023-03-06T18:00:49.035Z,6.26
2023-03-06T18:03:15.639Z,6.23
2023-03-06T18:05:42.232Z,6.21
2023-03-06T18:08:10.184Z,6.19
2023-03-06T18:10:41.205Z,6.21
2023-03-06T18:13:09.922Z,6.15
2023-03-06T18:15:40.572Z,6.17
2023-03-06T18:18:07.789Z,6.16
2023-03-06T18:20:35.141Z,6.18
2023-03-06T18:23:03.643Z,6.23
2023-03-06T18:25:31.490Z,6.20
2023-03-06T18:27:58.740Z,6.25
2023-03-06T18:30:25.538Z,6.23
2023-03-06T18:32:52.040Z,6.23
2023-03-06T18:35:18.844Z,6.24
2023-03-06T18:37:45.349Z,6.18
2023-03-06T18:40:12.451Z,6.12
2023-03-06T18:42:39.037Z,6.10
2023-03-06T18:45:06.021Z,6.05
2023-03-06T18:47:33.556Z,6.10
2023-03-06T18:49:59.997Z,6.16
2023-03-06T18:52:26.557Z,6.17
2023-03-06T18:54:53.450Z,6.21
2023-03-06T18:57:19.942Z,6.20
2023-03-06T18:59:46.397Z,6.20
2023-03-06T19:02:12.896Z,6.30
2023-03-06T19:04:39.575Z,6.29
2023-03-06T19:07:06.686Z,6.29
2023-03-06T19:09:33.889Z,6.26
2023-03-06T19:12:03.119Z,6.28
2023-03-06T19:14:30.718Z,6.44
2023-03-06T19:16:57.339Z,6.41
2023-03-06T19:19:29.127Z,6.41
2023-03-06T19:21:58.228Z,6.40
2023-03-06T19:24:24.699Z,6.38
2023-03-06T19:26:51.130Z,6.38
2023-03-06T19:29:17.556Z,6.33
2023-03-06T19:31:44.125Z,6.40
2023-03-06T19:34:10.547Z,6.37
2023-03-06T19:36:38.729Z,6.45
2023-03-06T19:39:07.096Z,6.37
2023-03-06T19:41:34.259Z,6.40
2023-03-06T19:44:03.142Z,6.38
2023-03-06T19:46:29.985Z,6.37
2023-03-06T19:49:01.998Z,6.37
2023-03-06T19:51:29.345Z,6.33
2023-03-06T19:53:57.492Z,6.35
2023-03-06T19:56:27.432Z,6.37
2023-03-06T19:58:54.315Z,6.25
2023-03-06T20:01:22.838Z,6.32
2023-03-06T20:03:50.521Z,6.35
2023-03-06T20:06:19.259Z,6.34
2023-03-06T20:08:46.904Z,6.37
2023-03-06T20:11:24.406Z,6.37
2023-03-06T20:13:50.991Z,6.38
2023-03-06T20:16:18.576Z,6.48
2023-03-06T20:18:45.587Z,6.49
2023-03-06T20:21:12.143Z,6.47
2023-03-06T20:23:38.633Z,6.50
2023-03-06T20:26:11.712Z,6.45
2023-03-06T20:28:39.405Z,6.46
2023-03-06T20:31:11.215Z,6.48
2023-03-06T20:33:37.896Z,6.51
2023-03-06T20:36:05.040Z,6.52
2023-03-06T20:38:31.540Z,6.42
2023-03-06T20:40:59.632Z,6.48
2023-03-06T20:43:26.152Z,6.46
2023-03-06T20:46:00.785Z,6.42
2023-03-06T20:48:27.378Z,6.43
2023-03-06T20:51:05.355Z,6.33
2023-03-06T20:53:32.092Z,6.30
2023-03-06T20:55:58.523Z,6.28
2023-03-06T20:58:28.502Z,6.24
2023-03-06T21:00:55.033Z,6.23
2023-03-06T21:03:21.708Z,6.18
2023-03-06T21:05:48.549Z,6.14
2023-03-06T21:08:16.253Z,6.16
2023-03-06T21:10:44.777Z,6.18
2023-03-06T21:13:11.542Z,6.24
2023-03-06T21:15:39.505Z,6.23
2023-03-06T21:18:06.407Z,6.21
2023-03-06T21:20:33.713Z,6.21
2023-03-06T21:23:01.699Z,6.27
2023-03-06T21:25:28.903Z,6.31
2023-03-06T21:27:56.052Z,6.24
2023-03-06T21:30:22.476Z,6.25
2023-03-06T21:32:51.067Z,6.21
2023-03-06T21:35:18.131Z,6.25
2023-03-06T21:37:45.446Z,6.27
2023-03-06T21:40:14.193Z,6.21
2023-03-06T21:42:41.385Z,6.18
2023-03-06T21:45:08.154Z,6.23
2023-03-06T21:47:38.729Z,6.27
2023-03-06T21:50:08.135Z,6.27
2023-03-06T21:52:34.538Z,6.24
2023-03-06T21:55:01.026Z,6.24
2023-03-06T21:57:27.736Z,6.23
2023-03-06T21:59:54.223Z,6.23
2023-03-06T22:02:21.856Z,6.20
2023-03-06T22:04:52.635Z,6.19
2023-03-06T22:07:22.772Z,6.22
2023-03-06T22:09:52.668Z,6.25
2023-03-06T22:12:19.326Z,6.27
2023-03-06T22:14:45.805Z,6.24
2023-03-06T22:17:12.309Z,6.26
2023-03-06T22:19:38.860Z,6.25
2023-03-06T22:22:05.343Z,6.25
2023-03-06T22:24:31.916Z,6.30
2023-03-06T22:26:58.433Z,6.24
2023-03-06T22:29:24.919Z,6.16
2023-03-06T22:31:52.026Z,6.24
2023-03-06T22:34:18.561Z,6.24
2023-03-06T22:36:45.059Z,6.23
2023-03-06T22:39:12.841Z,6.24
2023-03-06T22:41:39.871Z,6.21
2023-03-06T22:44:06.442Z,6.20
2023-03-06T22:46:33.475Z,6.20
2023-03-06T22:49:00.818Z,6.20
2023-03-06T22:51:28.408Z,6.20
2023-03-06T22:53:55.374Z,6.23
2023-03-06T22:56:21.891Z,6.23
2023-03-06T22:58:48.368Z,6.17
2023-03-06T23:01:23.161Z,6.23
2023-03-06T23:03:51.396Z,6.23
2023-03-06T23:06:21.219Z,6.17
2023-03-06T23:09:02.549Z,6.15
2023-03-06T23:11:30.003Z,6.19
2023-03-06T23:13:56.973Z,6.15
2023-03-06T23:16:23.554Z,6.15
2023-03-06T23:18:52.425Z,6.08
2023-03-06T23:21:20.623Z,6.07
2023-03-06T23:23:49.026Z,6.05
2023-03-06T23:26:17.386Z,6.03
2023-03-06T23:28:44.188Z,5.98
2023-03-06T23:31:19.420Z,5.98
2023-03-06T23:33:45.957Z,5.93
2023-03-06T23:36:14.433Z,5.95
2023-03-06T23:38:41.076Z,5.89
2023-03-06T23:41:11.476Z,5.94
2023-03-06T23:43:38.192Z,5.91
2023-03-06T23:46:05.525Z,5.91
2023-03-06T23:48:31.952Z,5.83
2023-03-06T23:50:58.458Z,5.92
2023-03-06T23:53:25.267Z,5.86
2023-03-06T23:55:51.842Z,5.85
2023-03-06T23:58:19.544Z,5.84
